sensor_id;sensor_type;location;lat;lon;timestamp;pressure;altitude;pressure_sealevel;temperature;humidity
28626;BME280;18905;42.668;23.364;2023-07-13T00:00:33;95326.84;;;25.09;100.00
28626;BME280;18905;42.668;23.364;2023-07-13T00:02:58;95296.75;;;25.18;100.00
28626;BME280;18905;42.668;23.364;2023-07-13T00:05:24;95329.41;;;25.40;98.02
28626;BME280;18905;42.668;23.364;2023-07-13T00:07:51;95337.66;;;25.44;96.38
28626;BME280;18905;42.668;23.364;2023-07-13T00:10:17;95334.63;;;25.28;98.76
28626;BME280;18905;42.668;23.364;2023-07-13T00:12:43;95337.50;;;25.03;100.00
28626;BME280;18905;42.668;23.364;2023-07-13T00:15:21;95333.91;;;25.13;100.00
28626;BME280;18905;42.668;23.364;2023-07-13T00:17:57;95322.50;;;25.04;100.00
28626;BME280;18905;42.668;23.364;2023-07-13T00:20:24;95315.91;;;24.84;100.00
28626;BME280;18905;42.668;23.364;2023-07-13T00:22:51;95334.19;;;24.40;100.00
28626;BME280;18905;42.668;23.364;2023-07-13T00:25:21;95322.41;;;24.36;100.00
28626;BME280;18905;42.668;23.364;2023-07-13T00:27:49;95323.91;;;24.54;100.00
28626;BME280;18905;42.668;23.364;2023-07-13T00:30:15;95295.16;;;24.41;100.00
28626;BME280;18905;42.668;23.364;2023-07-13T00:32:41;95306.16;;;24.52;100.00
28626;BME280;18905;42.668;23.364;2023-07-13T00:35:06;95315.25;;;24.49;100.00
28626;BME280;18905;42.668;23.364;2023-07-13T00:37:35;95314.13;;;24.39;100.00
28626;BME280;18905;42.668;23.364;2023-07-13T00:40:04;95312.06;;;24.57;100.00
28626;BME280;18905;42.668;23.364;2023-07-13T00:42:31;95322.78;;;24.45;100.00
28626;BME280;18905;42.668;23.364;2023-07-13T00:47:37;95323.47;;;24.70;100.00
28626;BME280;18905;42.668;23.364;2023-07-13T00:50:04;95308.50;;;24.57;100.00
28626;BME280;18905;42.668;23.364;2023-07-13T00:52:30;95321.28;;;24.23;100.00
28626;BME280;18905;42.668;23.364;2023-07-13T00:54:56;95316.53;;;24.20;100.00
28626;BME280;18905;42.668;23.364;2023-07-13T00:57:23;95307.47;;;24.16;100.00
28626;BME280;18905;42.668;23.364;2023-07-13T00:59:52;95303.50;;;24.34;100.00
28626;BME280;18905;42.668;23.364;2023-07-13T01:02:19;95300.41;;;24.11;100.00
28626;BME280;18905;42.668;23.364;2023-07-13T01:04:44;95314.81;;;24.54;100.00
28626;BME280;18905;42.668;23.364;2023-07-13T01:07:10;95304.22;;;24.49;100.00
28626;BME280;18905;42.668;23.364;2023-07-13T01:09:37;95313.25;;;24.53;100.00
28626;BME280;18905;42.668;23.364;2023-07-13T01:12:03;95278.59;;;24.41;100.00
28626;BME280;18905;42.668;23.364;2023-07-13T01:14:29;95316.94;;;24.25;100.00
28626;BME280;18905;42.668;23.364;2023-07-13T01:16:54;95297.97;;;24.31;100.00
28626;BME280;18905;42.668;23.364;2023-07-13T01:19:40;95306.63;;;24.36;100.00
28626;BME280;18905;42.668;23.364;2023-07-13T01:22:13;95318.16;;;24.07;100.00
28626;BME280;18905;42.668;23.364;2023-07-13T01:24:42;95295.72;;;23.80;100.00
28626;BME280;18905;42.668;23.364;2023-07-13T01:27:08;95274.88;;;23.27;100.00
28626;BME280;18905;42.668;23.364;2023-07-13T01:29:36;95307.94;;;23.62;100.00
28626;BME280;18905;42.668;23.364;2023-07-13T01:32:17;95316.59;;;23.95;100.00
28626;BME280;18905;42.668;23.364;2023-07-13T01:34:52;95272.47;;;23.81;100.00
28626;BME280;18905;42.668;23.364;2023-07-13T01:37:20;95306.72;;;24.05;100.00
28626;BME280;18905;42.668;23.364;2023-07-13T01:39:45;95325.22;;;24.15;100.00
28626;BME280;18905;42.668;23.364;2023-07-13T01:42:12;95315.34;;;24.24;100.00
28626;BME280;18905;42.668;23.364;2023-07-13T01:44:37;95300.72;;;24.38;100.00
28626;BME280;18905;42.668;23.364;2023-07-13T01:47:03;95288.47;;;24.39;99.64
28626;BME280;18905;42.668;23.364;2023-07-13T01:49:29;95305.75;;;24.57;99.07
28626;BME280;18905;42.668;23.364;2023-07-13T01:51:54;95307.81;;;24.35;96.90
28626;BME280;18905;42.668;23.364;2023-07-13T01:54:19;95270.41;;;24.24;98.17
28626;BME280;18905;42.668;23.364;2023-07-13T01:56:45;95306.28;;;24.17;100.00
28626;BME280;18905;42.668;23.364;2023-07-13T01:59:10;95299.56;;;24.25;100.00
28626;BME280;18905;42.668;23.364;2023-07-13T02:01:35;95306.59;;;24.40;99.71
28626;BME280;18905;42.668;23.364;2023-07-13T02:04:02;95250.00;;;23.76;100.00
28626;BME280;18905;42.668;23.364;2023-07-13T02:06:27;95312.94;;;24.30;98.68
28626;BME280;18905;42.668;23.364;2023-07-13T02:08:53;95314.59;;;24.13;100.00
28626;BME280;18905;42.668;23.364;2023-07-13T02:11:18;95282.66;;;24.16;96.29
28626;BME280;18905;42.668;23.364;2023-07-13T02:13:44;95290.03;;;24.40;93.07
28626;BME280;18905;42.668;23.364;2023-07-13T02:16:09;95302.75;;;24.20;94.26
28626;BME280;18905;42.668;23.364;2023-07-13T02:18:35;95316.84;;;24.46;93.41
28626;BME280;18905;42.668;23.364;2023-07-13T02:21:00;95303.44;;;24.41;93.01
28626;BME280;18905;42.668;23.364;2023-07-13T02:23:25;95318.81;;;24.49;92.95
28626;BME280;18905;42.668;23.364;2023-07-13T02:25:58;95299.56;;;24.32;92.83
28626;BME280;18905;42.668;23.364;2023-07-13T02:28:23;95322.09;;;24.13;96.10
28626;BME280;18905;42.668;23.364;2023-07-13T02:30:49;95321.66;;;24.14;96.16
28626;BME280;18905;42.668;23.364;2023-07-13T02:33:14;95302.78;;;24.06;95.15
28626;BME280;18905;42.668;23.364;2023-07-13T02:35:40;95324.75;;;24.37;95.95
28626;BME280;18905;42.668;23.364;2023-07-13T02:38:06;95292.88;;;24.22;94.63
28626;BME280;18905;42.668;23.364;2023-07-13T02:40:31;95318.81;;;24.49;95.36
28626;BME280;18905;42.668;23.364;2023-07-13T02:42:59;95316.78;;;24.57;92.46
28626;BME280;18905;42.668;23.364;2023-07-13T02:45:25;95317.97;;;24.63;92.88
28626;BME280;18905;42.668;23.364;2023-07-13T02:47:50;95323.16;;;24.47;92.82
28626;BME280;18905;42.668;23.364;2023-07-13T02:50:16;95322.38;;;24.50;92.99
28626;BME280;18905;42.668;23.364;2023-07-13T02:52:41;95324.00;;;24.33;94.27
28626;BME280;18905;42.668;23.364;2023-07-13T02:55:07;95332.59;;;24.49;93.22
28626;BME280;18905;42.668;23.364;2023-07-13T02:57:32;95333.53;;;23.94;97.86
28626;BME280;18905;42.668;23.364;2023-07-13T03:00:01;95311.47;;;23.83;98.94
28626;BME280;18905;42.668;23.364;2023-07-13T03:02:30;95329.22;;;23.93;100.00
28626;BME280;18905;42.668;23.364;2023-07-13T03:04:56;95336.69;;;23.61;100.00
28626;BME280;18905;42.668;23.364;2023-07-13T03:07:21;95328.75;;;23.14;100.00
28626;BME280;18905;42.668;23.364;2023-07-13T03:09:46;95337.84;;;23.39;100.00
28626;BME280;18905;42.668;23.364;2023-07-13T03:12:12;95321.66;;;23.06;100.00
28626;BME280;18905;42.668;23.364;2023-07-13T03:14:37;95316.13;;;22.88;100.00
28626;BME280;18905;42.668;23.364;2023-07-13T03:17:03;95330.75;;;23.27;100.00
28626;BME280;18905;42.668;23.364;2023-07-13T03:19:28;95340.63;;;23.49;100.00
28626;BME280;18905;42.668;23.364;2023-07-13T03:21:54;95335.91;;;23.39;100.00
28626;BME280;18905;42.668;23.364;2023-07-13T03:24:19;95338.22;;;23.16;100.00
28626;BME280;18905;42.668;23.364;2023-07-13T03:26:45;95339.44;;;23.40;100.00
28626;BME280;18905;42.668;23.364;2023-07-13T03:29:11;95328.81;;;23.56;100.00
28626;BME280;18905;42.668;23.364;2023-07-13T03:31:36;95332.34;;;23.63;100.00
28626;BME280;18905;42.668;23.364;2023-07-13T03:34:02;95338.25;;;23.62;100.00
28626;BME280;18905;42.668;23.364;2023-07-13T03:36:30;95345.75;;;23.72;100.00
28626;BME280;18905;42.668;23.364;2023-07-13T03:38:58;95352.44;;;23.53;100.00
28626;BME280;18905;42.668;23.364;2023-07-13T03:41:24;95352.44;;;23.50;100.00
28626;BME280;18905;42.668;23.364;2023-07-13T03:43:50;95344.56;;;23.55;100.00
28626;BME280;18905;42.668;23.364;2023-07-13T03:46:17;95314.63;;;23.47;100.00
28626;BME280;18905;42.668;23.364;2023-07-13T03:48:44;95336.66;;;23.85;100.00
28626;BME280;18905;42.668;23.364;2023-07-13T03:51:12;95329.84;;;24.42;100.00
28626;BME280;18905;42.668;23.364;2023-07-13T03:53:41;95330.50;;;24.85;100.00
28626;BME280;18905;42.668;23.364;2023-07-13T03:56:07;95337.94;;;24.98;100.00
28626;BME280;18905;42.668;23.364;2023-07-13T03:58:38;95327.53;;;25.20;100.00
28626;BME280;18905;42.668;23.364;2023-07-13T04:01:05;95345.31;;;25.19;100.00
28626;BME280;18905;42.668;23.364;2023-07-13T04:03:31;95338.72;;;24.99;100.00
28626;BME280;18905;42.668;23.364;2023-07-13T04:05:58;95347.06;;;24.92;100.00
28626;BME280;18905;42.668;23.364;2023-07-13T04:08:28;95347.41;;;24.94;100.00
28626;BME280;18905;42.668;23.364;2023-07-13T04:10:54;95338.00;;;24.88;100.00
28626;BME280;18905;42.668;23.364;2023-07-13T04:13:19;95309.56;;;24.87;100.00
28626;BME280;18905;42.668;23.364;2023-07-13T04:15:45;95338.00;;;24.81;100.00
28626;BME280;18905;42.668;23.364;2023-07-13T04:18:10;95333.25;;;24.92;100.00
28626;BME280;18905;42.668;23.364;2023-07-13T04:20:36;95339.53;;;24.96;100.00
28626;BME280;18905;42.668;23.364;2023-07-13T04:23:01;95322.44;;;25.15;100.00
28626;BME280;18905;42.668;23.364;2023-07-13T04:25:29;95362.53;;;25.44;100.00
28626;BME280;18905;42.668;23.364;2023-07-13T04:27:55;95358.25;;;25.36;100.00
28626;BME280;18905;42.668;23.364;2023-07-13T04:30:22;95329.66;;;24.95;100.00
28626;BME280;18905;42.668;23.364;2023-07-13T04:32:48;95334.44;;;24.84;93.26
28626;BME280;18905;42.668;23.364;2023-07-13T04:35:13;95362.28;;;25.17;97.37
28626;BME280;18905;42.668;23.364;2023-07-13T04:37:40;95344.72;;;24.80;100.00
28626;BME280;18905;42.668;23.364;2023-07-13T04:40:06;95364.94;;;25.42;98.04
28626;BME280;18905;42.668;23.364;2023-07-13T04:42:35;95359.66;;;25.58;95.92
28626;BME280;18905;42.668;23.364;2023-07-13T04:45:00;95351.78;;;25.60;93.31
28626;BME280;18905;42.668;23.364;2023-07-13T04:47:25;95360.53;;;25.48;94.08
28626;BME280;18905;42.668;23.364;2023-07-13T04:49:51;95359.31;;;25.56;93.56
28626;BME280;18905;42.668;23.364;2023-07-13T04:52:16;95373.09;;;25.59;95.09
28626;BME280;18905;42.668;23.364;2023-07-13T04:54:42;95341.38;;;25.74;93.07
28626;BME280;18905;42.668;23.364;2023-07-13T04:57:07;95372.16;;;25.80;94.40
28626;BME280;18905;42.668;23.364;2023-07-13T04:59:33;95376.38;;;25.95;95.54
28626;BME280;18905;42.668;23.364;2023-07-13T05:01:58;95380.13;;;26.59;90.12
28626;BME280;18905;42.668;23.364;2023-07-13T05:04:24;95372.56;;;26.96;87.01
28626;BME280;18905;42.668;23.364;2023-07-13T05:06:49;95351.13;;;27.00;87.88
28626;BME280;18905;42.668;23.364;2023-07-13T05:09:15;95381.84;;;27.69;81.77
28626;BME280;18905;42.668;23.364;2023-07-13T05:11:40;95363.88;;;28.04;79.61
28626;BME280;18905;42.668;23.364;2023-07-13T05:14:05;95379.19;;;28.35;81.73
28626;BME280;18905;42.668;23.364;2023-07-13T05:16:31;95381.59;;;28.10;78.53
28626;BME280;18905;42.668;23.364;2023-07-13T05:18:57;95392.44;;;28.51;76.47
28626;BME280;18905;42.668;23.364;2023-07-13T05:21:23;95388.41;;;28.94;73.84
28626;BME280;18905;42.668;23.364;2023-07-13T05:23:48;95383.25;;;29.32;71.71
28626;BME280;18905;42.668;23.364;2023-07-13T05:26:13;95371.91;;;29.42;73.20
28626;BME280;18905;42.668;23.364;2023-07-13T05:28:39;95367.88;;;29.27;76.00
28626;BME280;18905;42.668;23.364;2023-07-13T05:31:07;95373.53;;;29.59;71.62
28626;BME280;18905;42.668;23.364;2023-07-13T05:33:33;95381.41;;;29.80;71.08
28626;BME280;18905;42.668;23.364;2023-07-13T05:36:01;95387.56;;;30.04;70.09
28626;BME280;18905;42.668;23.364;2023-07-13T05:38:36;95355.38;;;29.87;69.87
28626;BME280;18905;42.668;23.364;2023-07-13T05:41:02;95391.69;;;30.15;68.13
28626;BME280;18905;42.668;23.364;2023-07-13T05:43:28;95394.19;;;29.78;74.19
28626;BME280;18905;42.668;23.364;2023-07-13T05:45:54;95403.66;;;29.96;68.10
28626;BME280;18905;42.668;23.364;2023-07-13T05:48:19;95392.97;;;30.27;67.99
28626;BME280;18905;42.668;23.364;2023-07-13T05:50:45;95394.84;;;30.17;68.04
28626;BME280;18905;42.668;23.364;2023-07-13T05:53:11;95390.28;;;30.23;74.41
28626;BME280;18905;42.668;23.364;2023-07-13T05:55:44;95378.66;;;30.57;66.40
28626;BME280;18905;42.668;23.364;2023-07-13T05:58:11;95389.97;;;30.94;63.08
28626;BME280;18905;42.668;23.364;2023-07-13T06:00:36;95392.78;;;30.94;60.90
28626;BME280;18905;42.668;23.364;2023-07-13T06:03:02;95391.66;;;30.92;60.12
28626;BME280;18905;42.668;23.364;2023-07-13T06:05:27;95368.97;;;30.61;63.73
28626;BME280;18905;42.668;23.364;2023-07-13T06:07:54;95356.50;;;30.82;62.28
28626;BME280;18905;42.668;23.364;2023-07-13T06:10:19;95370.03;;;30.96;58.71
28626;BME280;18905;42.668;23.364;2023-07-13T06:12:45;95376.31;;;31.12;61.51
28626;BME280;18905;42.668;23.364;2023-07-13T06:15:33;95383.59;;;30.81;61.92
28626;BME280;18905;42.668;23.364;2023-07-13T06:17:59;95392.81;;;31.35;58.11
28626;BME280;18905;42.668;23.364;2023-07-13T06:20:24;95351.47;;;30.77;60.94
28626;BME280;18905;42.668;23.364;2023-07-13T06:22:50;95387.56;;;30.04;65.17
28626;BME280;18905;42.668;23.364;2023-07-13T06:25:15;95394.44;;;29.99;63.66
28626;BME280;18905;42.668;23.364;2023-07-13T06:27:40;95393.88;;;30.24;63.57
28626;BME280;18905;42.668;23.364;2023-07-13T06:30:06;95374.06;;;30.50;64.47
28626;BME280;18905;42.668;23.364;2023-07-13T06:32:32;95386.28;;;30.85;67.49
28626;BME280;18905;42.668;23.364;2023-07-13T06:34:57;95376.66;;;31.02;63.08
28626;BME280;18905;42.668;23.364;2023-07-13T06:37:22;95385.59;;;31.09;59.44
28626;BME280;18905;42.668;23.364;2023-07-13T06:39:48;95382.31;;;31.39;56.49
28626;BME280;18905;42.668;23.364;2023-07-13T06:42:13;95346.31;;;31.16;57.66
28626;BME280;18905;42.668;23.364;2023-07-13T06:44:38;95376.00;;;30.37;59.54
28626;BME280;18905;42.668;23.364;2023-07-13T06:47:04;95380.16;;;29.97;63.12
28626;BME280;18905;42.668;23.364;2023-07-13T06:49:30;95385.41;;;29.95;64.79
28626;BME280;18905;42.668;23.364;2023-07-13T06:51:55;95370.16;;;30.00;63.41
28626;BME280;18905;42.668;23.364;2023-07-13T06:54:20;95367.91;;;29.95;64.53
28626;BME280;18905;42.668;23.364;2023-07-13T06:56:46;95368.59;;;29.83;68.21
28626;BME280;18905;42.668;23.364;2023-07-13T06:59:11;95380.72;;;30.24;63.62
28626;BME280;18905;42.668;23.364;2023-07-13T07:01:36;95371.72;;;30.49;63.62
28626;BME280;18905;42.668;23.364;2023-07-13T07:04:03;95379.88;;;30.72;65.39
28626;BME280;18905;42.668;23.364;2023-07-13T07:06:31;95362.53;;;31.21;63.89
28626;BME280;18905;42.668;23.364;2023-07-13T07:08:57;95380.63;;;31.29;59.64
28626;BME280;18905;42.668;23.364;2023-07-13T07:11:25;95376.06;;;30.50;64.81
28626;BME280;18905;42.668;23.364;2023-07-13T07:13:52;95367.63;;;29.57;66.08
28626;BME280;18905;42.668;23.364;2023-07-13T07:16:19;95367.69;;;29.34;67.76
28626;BME280;18905;42.668;23.364;2023-07-13T07:18:45;95359.09;;;29.64;68.68
28626;BME280;18905;42.668;23.364;2023-07-13T07:21:10;95378.13;;;30.17;67.31
28626;BME280;18905;42.668;23.364;2023-07-13T07:23:36;95356.81;;;30.39;66.61
28626;BME280;18905;42.668;23.364;2023-07-13T07:26:02;95372.88;;;30.35;67.46
28626;BME280;18905;42.668;23.364;2023-07-13T07:28:27;95345.44;;;30.78;69.31
28626;BME280;18905;42.668;23.364;2023-07-13T07:30:57;95349.91;;;30.76;64.11
28626;BME280;18905;42.668;23.364;2023-07-13T07:33:24;95347.34;;;30.81;64.64
28626;BME280;18905;42.668;23.364;2023-07-13T07:35:49;95366.09;;;30.81;67.07
28626;BME280;18905;42.668;23.364;2023-07-13T07:38:15;95361.00;;;31.33;60.34
28626;BME280;18905;42.668;23.364;2023-07-13T07:40:41;95360.03;;;31.64;61.91
28626;BME280;18905;42.668;23.364;2023-07-13T07:43:08;95363.03;;;31.45;63.51
28626;BME280;18905;42.668;23.364;2023-07-13T07:45:34;95357.59;;;31.79;61.16
28626;BME280;18905;42.668;23.364;2023-07-13T07:47:59;95329.47;;;32.20;58.69
28626;BME280;18905;42.668;23.364;2023-07-13T07:50:28;95338.25;;;32.09;60.43
28626;BME280;18905;42.668;23.364;2023-07-13T07:52:54;95333.72;;;32.37;59.45
28626;BME280;18905;42.668;23.364;2023-07-13T07:55:21;95347.59;;;32.15;55.78
28626;BME280;18905;42.668;23.364;2023-07-13T07:57:49;95343.47;;;32.07;58.27
28626;BME280;18905;42.668;23.364;2023-07-13T08:00:15;95345.03;;;32.08;61.60
28626;BME280;18905;42.668;23.364;2023-07-13T08:02:41;95344.91;;;32.37;56.85
28626;BME280;18905;42.668;23.364;2023-07-13T08:05:08;95322.31;;;32.44;56.78
28626;BME280;18905;42.668;23.364;2023-07-13T08:07:33;95333.13;;;32.76;57.57
28626;BME280;18905;42.668;23.364;2023-07-13T08:09:59;95323.75;;;32.70;53.34
28626;BME280;18905;42.668;23.364;2023-07-13T08:12:24;95310.88;;;32.72;53.60
28626;BME280;18905;42.668;23.364;2023-07-13T08:14:50;95305.16;;;32.76;53.43
28626;BME280;18905;42.668;23.364;2023-07-13T08:17:21;95327.53;;;33.19;52.16
28626;BME280;18905;42.668;23.364;2023-07-13T08:19:47;95324.50;;;33.26;52.31
28626;BME280;18905;42.668;23.364;2023-07-13T08:22:12;95297.78;;;33.34;51.34
28626;BME280;18905;42.668;23.364;2023-07-13T08:24:38;95322.22;;;33.33;53.57
28626;BME280;18905;42.668;23.364;2023-07-13T08:27:04;95314.88;;;33.57;52.65
28626;BME280;18905;42.668;23.364;2023-07-13T08:29:29;95300.44;;;33.68;48.62
28626;BME280;18905;42.668;23.364;2023-07-13T08:31:57;95289.47;;;33.52;50.33
28626;BME280;18905;42.668;23.364;2023-07-13T08:34:23;95240.50;;;32.95;50.30
28626;BME280;18905;42.668;23.364;2023-07-13T08:36:51;95307.66;;;33.17;50.01
28626;BME280;18905;42.668;23.364;2023-07-13T08:39:17;95285.75;;;32.94;49.75
28626;BME280;18905;42.668;23.364;2023-07-13T08:41:46;95244.94;;;32.41;51.75
28626;BME280;18905;42.668;23.364;2023-07-13T08:45:28;95302.34;;;32.88;52.50
28626;BME280;18905;42.668;23.364;2023-07-13T08:47:22;95293.25;;;33.06;51.16
28626;BME280;18905;42.668;23.364;2023-07-13T08:49:49;95288.94;;;33.35;52.79
28626;BME280;18905;42.668;23.364;2023-07-13T08:52:36;95299.84;;;33.12;49.88
28626;BME280;18905;42.668;23.364;2023-07-13T08:55:12;95301.91;;;33.20;49.84
28626;BME280;18905;42.668;23.364;2023-07-13T08:57:41;95289.88;;;33.11;49.70
28626;BME280;18905;42.668;23.364;2023-07-13T09:00:11;95305.22;;;33.28;49.26
28626;BME280;18905;42.668;23.364;2023-07-13T09:02:45;95316.09;;;33.56;48.15
28626;BME280;18905;42.668;23.364;2023-07-13T09:05:18;95310.88;;;33.37;49.07
28626;BME280;18905;42.668;23.364;2023-07-13T09:10:23;95325.34;;;32.71;50.39
28626;BME280;18905;42.668;23.364;2023-07-13T09:15:36;95319.09;;;32.88;53.85
28626;BME280;18905;42.668;23.364;2023-07-13T09:18:18;95307.25;;;33.06;51.79
28626;BME280;18905;42.668;23.364;2023-07-13T09:20:54;95323.28;;;33.05;59.81
28626;BME280;18905;42.668;23.364;2023-07-13T09:23:23;95319.09;;;32.88;52.60
28626;BME280;18905;42.668;23.364;2023-07-13T09:25:53;95323.50;;;32.77;52.54
28626;BME280;18905;42.668;23.364;2023-07-13T09:28:25;95332.69;;;32.43;52.48
28626;BME280;18905;42.668;23.364;2023-07-13T09:33:38;95315.84;;;32.68;53.18
28626;BME280;18905;42.668;23.364;2023-07-13T09:36:31;95327.75;;;32.81;53.12
28626;BME280;18905;42.668;23.364;2023-07-13T09:39:14;95312.28;;;32.34;51.29
28626;BME280;18905;42.668;23.364;2023-07-13T09:44:17;95314.25;;;32.67;52.07
28626;BME280;18905;42.668;23.364;2023-07-13T09:46:46;95315.16;;;33.29;52.08
28626;BME280;18905;42.668;23.364;2023-07-13T09:49:13;95313.13;;;33.51;51.21
28626;BME280;18905;42.668;23.364;2023-07-13T09:51:41;95307.28;;;34.15;49.66
28626;BME280;18905;42.668;23.364;2023-07-13T09:54:19;95294.91;;;34.52;47.97
28626;BME280;18905;42.668;23.364;2023-07-13T09:56:45;95289.78;;;34.78;46.82
28626;BME280;18905;42.668;23.364;2023-07-13T09:59:21;95279.63;;;34.71;45.14
28626;BME280;18905;42.668;23.364;2023-07-13T10:01:49;95284.28;;;33.72;47.23
28626;BME280;18905;42.668;23.364;2023-07-13T10:04:18;95285.59;;;33.89;46.49
28626;BME280;18905;42.668;23.364;2023-07-13T10:06:44;95284.97;;;33.54;46.28
28626;BME280;18905;42.668;23.364;2023-07-13T10:09:15;95277.84;;;34.02;48.48
28626;BME280;18905;42.668;23.364;2023-07-13T10:11:41;95268.06;;;34.24;46.95
28626;BME280;18905;42.668;23.364;2023-07-13T10:14:14;95234.31;;;34.55;45.91
28626;BME280;18905;42.668;23.364;2023-07-13T10:16:43;95253.31;;;34.78;46.54
28626;BME280;18905;42.668;23.364;2023-07-13T10:19:19;95271.50;;;34.55;47.07
28626;BME280;18905;42.668;23.364;2023-07-13T10:21:56;95270.59;;;34.58;47.75
28626;BME280;18905;42.668;23.364;2023-07-13T10:24:24;95267.13;;;34.18;46.88
28626;BME280;18905;42.668;23.364;2023-07-13T10:29:59;95260.06;;;33.87;49.06
28626;BME280;18905;42.668;23.364;2023-07-13T10:32:26;95254.78;;;33.98;48.98
28626;BME280;18905;42.668;23.364;2023-07-13T10:34:52;95254.47;;;33.47;44.41
28626;BME280;18905;42.668;23.364;2023-07-13T10:37:26;95232.91;;;34.32;44.82
28626;BME280;18905;42.668;23.364;2023-07-13T10:39:54;95217.94;;;34.53;47.10
28626;BME280;18905;42.668;23.364;2023-07-13T10:42:28;95241.13;;;34.27;39.61
28626;BME280;18905;42.668;23.364;2023-07-13T10:44:55;95243.94;;;34.72;36.10
28626;BME280;18905;42.668;23.364;2023-07-13T10:47:20;95241.88;;;35.08;35.96
28626;BME280;18905;42.668;23.364;2023-07-13T10:49:47;95236.44;;;34.96;38.31
28626;BME280;18905;42.668;23.364;2023-07-13T10:52:53;95227.00;;;35.26;36.56
28626;BME280;18905;42.668;23.364;2023-07-13T10:58:14;95224.47;;;36.02;37.44
28626;BME280;18905;42.668;23.364;2023-07-13T11:03:18;95168.69;;;35.86;35.21
28626;BME280;18905;42.668;23.364;2023-07-13T11:05:49;95187.56;;;35.86;34.23
28626;BME280;18905;42.668;23.364;2023-07-13T11:10:53;95204.63;;;35.82;33.49
28626;BME280;18905;42.668;23.364;2023-07-13T11:16:43;95195.28;;;35.76;35.15
28626;BME280;18905;42.668;23.364;2023-07-13T11:25:02;95178.75;;;36.16;34.69
28626;BME280;18905;42.668;23.364;2023-07-13T11:27:51;95173.22;;;36.07;33.97
28626;BME280;18905;42.668;23.364;2023-07-13T11:33:12;95174.84;;;36.23;32.40
28626;BME280;18905;42.668;23.364;2023-07-13T11:38:51;95170.53;;;36.13;35.90
28626;BME280;18905;42.668;23.364;2023-07-13T11:41:27;95164.19;;;36.27;35.36
28626;BME280;18905;42.668;23.364;2023-07-13T11:44:04;95160.09;;;35.90;33.41
28626;BME280;18905;42.668;23.364;2023-07-13T11:46:30;95151.03;;;36.47;34.64
28626;BME280;18905;42.668;23.364;2023-07-13T11:48:55;95158.16;;;36.72;34.16
28626;BME280;18905;42.668;23.364;2023-07-13T11:51:27;95160.03;;;36.37;34.38
28626;BME280;18905;42.668;23.364;2023-07-13T11:53:55;95148.00;;;36.36;36.12
28626;BME280;18905;42.668;23.364;2023-07-13T11:56:23;95141.00;;;35.94;35.17
28626;BME280;18905;42.668;23.364;2023-07-13T11:58:51;95136.19;;;36.09;35.88
28626;BME280;18905;42.668;23.364;2023-07-13T12:01:24;95135.41;;;36.32;35.10
28626;BME280;18905;42.668;23.364;2023-07-13T12:03:51;95145.78;;;36.02;34.55
28626;BME280;18905;42.668;23.364;2023-07-13T12:08:59;95122.00;;;36.27;36.13
28626;BME280;18905;42.668;23.364;2023-07-13T12:11:25;95126.25;;;36.22;35.89
28626;BME280;18905;42.668;23.364;2023-07-13T12:13:50;95144.09;;;35.96;36.18
28626;BME280;18905;42.668;23.364;2023-07-13T12:16:29;95136.53;;;35.87;35.99
28626;BME280;18905;42.668;23.364;2023-07-13T12:18:56;95134.66;;;35.84;37.57
28626;BME280;18905;42.668;23.364;2023-07-13T12:21:33;95122.28;;;35.91;35.68
28626;BME280;18905;42.668;23.364;2023-07-13T12:24:00;95124.31;;;35.90;35.76
28626;BME280;18905;42.668;23.364;2023-07-13T12:26:30;95108.16;;;36.38;34.03
28626;BME280;18905;42.668;23.364;2023-07-13T12:28:58;95110.00;;;36.55;33.08
28626;BME280;18905;42.668;23.364;2023-07-13T12:34:12;95107.84;;;36.65;33.60
28626;BME280;18905;42.668;23.364;2023-07-13T12:36:45;95094.69;;;36.71;34.50
28626;BME280;18905;42.668;23.364;2023-07-13T12:39:15;95100.84;;;37.18;33.04
28626;BME280;18905;42.668;23.364;2023-07-13T12:41:41;95072.00;;;37.78;32.27
28626;BME280;18905;42.668;23.364;2023-07-13T12:44:12;95095.84;;;38.22;32.23
28626;BME280;18905;42.668;23.364;2023-07-13T12:46:39;95092.34;;;37.33;31.77
28626;BME280;18905;42.668;23.364;2023-07-13T12:49:06;95084.69;;;37.68;33.61
28626;BME280;18905;42.668;23.364;2023-07-13T12:51:36;95074.78;;;38.94;32.45
28626;BME280;18905;42.668;23.364;2023-07-13T12:54:14;95059.00;;;40.14;30.47
28626;BME280;18905;42.668;23.364;2023-07-13T12:56:40;95070.75;;;39.43;32.82
28626;BME280;18905;42.668;23.364;2023-07-13T12:59:16;95076.13;;;39.83;30.50
28626;BME280;18905;42.668;23.364;2023-07-13T13:01:42;95071.50;;;39.07;34.30
28626;BME280;18905;42.668;23.364;2023-07-13T13:04:09;95065.84;;;39.38;29.83
28626;BME280;18905;42.668;23.364;2023-07-13T13:06:36;95065.97;;;39.60;30.75
28626;BME280;18905;42.668;23.364;2023-07-13T13:09:03;95062.28;;;39.96;30.63
28626;BME280;18905;42.668;23.364;2023-07-13T13:11:30;95057.81;;;40.59;30.62
28626;BME280;18905;42.668;23.364;2023-07-13T13:13:56;95066.53;;;40.50;30.76
28626;BME280;18905;42.668;23.364;2023-07-13T13:16:32;95065.47;;;40.31;29.87
28626;BME280;18905;42.668;23.364;2023-07-13T13:19:17;95053.66;;;40.38;29.60
28626;BME280;18905;42.668;23.364;2023-07-13T13:21:44;95050.63;;;40.58;30.27
28626;BME280;18905;42.668;23.364;2023-07-13T13:24:15;95055.47;;;40.41;30.33
28626;BME280;18905;42.668;23.364;2023-07-13T13:26:41;95047.44;;;40.23;30.04
28626;BME280;18905;42.668;23.364;2023-07-13T13:29:15;95043.88;;;40.33;30.29
28626;BME280;18905;42.668;23.364;2023-07-13T13:31:41;95049.56;;;40.50;29.48
28626;BME280;18905;42.668;23.364;2023-07-13T13:34:11;95044.44;;;40.87;27.97
28626;BME280;18905;42.668;23.364;2023-07-13T13:36:39;95031.31;;;40.51;28.66